Terminal Aerodrome Forecast
Issued by NWS

Home | Current Version | Previous Version | Text Only | Print | Product List | Glossary On
Versions: 1 2 3 4 5 6 7 8 9 10 11 12 13
966
FTUS46 KSGX 251131
TAFPSP
TAF
KPSP 251131Z 2512/2612 VRB06KT P6SM SKC
     FM251800 32012G20KT P6SM SKC
     FM252300 32020G30KT P6SM SKC
     FM260800 32007KT P6SM SKC=

USA.gov is the U.S. government's official web portal to all federal, state and local government web resources and services.